createdAt,value
2017-09-01T00:01:50.367Z,14.80
2017-09-01T00:04:18.034Z,15.97
2017-09-01T00:06:45.596Z,18.77
2017-09-01T00:09:13.129Z,17.17
2017-09-01T00:11:40.621Z,16.37
2017-09-01T00:14:08.152Z,17.47
2017-09-01T00:16:35.865Z,16.43
2017-09-01T00:19:03.381Z,16.20
2017-09-01T00:21:30.885Z,16.57
2017-09-01T00:23:58.367Z,16.03
2017-09-01T00:26:25.872Z,16.20
2017-09-01T00:28:53.365Z,20.27
2017-09-01T00:31:20.934Z,16.10
2017-09-01T00:33:48.459Z,25.70
2017-09-01T00:36:16.036Z,16.20
2017-09-01T00:38:43.564Z,20.97
2017-09-01T00:41:11.105Z,22.30
2017-09-01T00:43:38.888Z,15.83
2017-09-01T00:46:06.408Z,16.23
2017-09-01T00:48:33.904Z,16.80
2017-09-01T00:51:01.476Z,17.80
2017-09-01T00:53:29.358Z,18.57
2017-09-01T00:55:56.882Z,18.67
2017-09-01T00:58:24.416Z,20.27
2017-09-01T01:00:51.951Z,16.63
2017-09-01T01:03:19.512Z,16.03
2017-09-01T01:05:47.079Z,18.10
2017-09-01T01:08:14.733Z,18.87
2017-09-01T01:10:42.228Z,18.80
2017-09-01T01:13:09.788Z,18.90
2017-09-01T01:15:37.333Z,18.17
2017-09-01T01:18:04.858Z,18.60
2017-09-01T01:20:32.352Z,16.50
2017-09-01T01:22:59.887Z,20.60
2017-09-01T01:25:27.388Z,17.23
2017-09-01T01:27:54.873Z,20.00
2017-09-01T01:30:22.383Z,17.37
2017-09-01T01:32:49.964Z,15.60
2017-09-01T01:35:17.516Z,17.40
2017-09-01T01:37:45.171Z,18.77
2017-09-01T01:40:12.778Z,16.77
2017-09-01T01:42:40.264Z,20.60
2017-09-01T01:45:07.788Z,19.07
2017-09-01T01:47:35.293Z,17.10
2017-09-01T01:50:02.825Z,21.13
2017-09-01T01:52:30.392Z,20.13
2017-09-01T01:54:57.932Z,15.70
2017-09-01T01:57:25.577Z,24.00
2017-09-01T01:59:53.061Z,14.83
2017-09-01T02:02:20.581Z,17.73
2017-09-01T02:04:48.092Z,15.70
2017-09-01T02:07:15.668Z,17.57
2017-09-01T02:09:43.177Z,17.50
2017-09-01T02:12:10.744Z,15.20
2017-09-01T02:14:38.233Z,17.20
2017-09-01T02:17:05.751Z,18.33
2017-09-01T02:19:33.390Z,15.13
2017-09-01T02:22:00.889Z,14.37
2017-09-01T02:24:28.455Z,14.67
2017-09-01T02:26:55.953Z,15.10
2017-09-01T02:29:23.549Z,21.60
2017-09-01T02:31:51.069Z,20.93
2017-09-01T02:34:18.632Z,18.00
2017-09-01T02:36:46.284Z,16.00
2017-09-01T02:39:13.840Z,14.83
2017-09-01T02:41:41.372Z,15.53
2017-09-01T02:44:08.861Z,16.20
2017-09-01T02:46:36.378Z,17.63
2017-09-01T02:49:03.874Z,17.03
2017-09-01T02:51:31.377Z,18.03
2017-09-01T02:53:58.888Z,23.43
2017-09-01T02:56:26.389Z,19.10
2017-09-01T02:58:53.877Z,22.30
2017-09-01T03:01:21.445Z,17.60
2017-09-01T03:03:48.954Z,19.77
2017-09-01T03:06:16.504Z,16.17
2017-09-01T03:08:44.058Z,19.20
2017-09-01T03:11:11.597Z,14.90
2017-09-01T03:13:39.089Z,15.03
2017-09-01T03:16:06.606Z,15.67
2017-09-01T03:18:34.128Z,17.03
2017-09-01T03:21:01.660Z,20.97
2017-09-01T03:23:29.213Z,18.40
2017-09-01T03:25:56.713Z,21.00
2017-09-01T03:28:25.165Z,18.13
2017-09-01T03:30:52.661Z,20.10
2017-09-01T03:33:20.233Z,20.90
2017-09-01T03:35:47.789Z,17.53
2017-09-01T03:38:15.330Z,16.37
2017-09-01T03:40:42.825Z,15.07
2017-09-01T03:43:10.380Z,15.60
2017-09-01T03:45:37.878Z,14.47
2017-09-01T03:48:05.409Z,18.83
2017-09-01T03:50:32.904Z,16.20
2017-09-01T03:53:00.457Z,16.53
2017-09-01T03:55:28.102Z,15.40
2017-09-01T03:57:55.650Z,15.77
2017-09-01T04:00:23.216Z,14.10
2017-09-01T04:02:50.719Z,15.73
2017-09-01T04:05:18.301Z,18.23
2017-09-01T04:07:45.869Z,20.00
2017-09-01T04:10:13.380Z,21.10
2017-09-01T04:12:40.869Z,16.43
2017-09-01T04:15:08.376Z,18.50
2017-09-01T04:17:35.876Z,16.17
2017-09-01T04:20:03.402Z,21.03
2017-09-01T04:22:30.984Z,16.07
2017-09-01T04:24:58.533Z,15.30
2017-09-01T04:27:26.072Z,18.00
2017-09-01T04:29:53.618Z,15.00
2017-09-01T04:32:21.130Z,15.83
2017-09-01T04:34:48.658Z,16.20
2017-09-01T04:37:16.218Z,17.43
2017-09-01T04:39:43.796Z,16.63
2017-09-01T04:42:11.337Z,17.07
2017-09-01T04:44:38.885Z,14.87
2017-09-01T04:47:06.396Z,14.23
2017-09-01T04:49:33.973Z,13.97
2017-09-01T04:52:01.520Z,18.40
2017-09-01T04:54:29.008Z,22.13
2017-09-01T04:56:56.633Z,15.50
2017-09-01T04:59:24.129Z,18.27
2017-09-01T05:01:51.721Z,21.37
2017-09-01T05:04:19.220Z,16.73
2017-09-01T05:06:46.782Z,20.50
2017-09-01T05:09:14.405Z,18.53
2017-09-01T05:11:42.041Z,27.40
2017-09-01T05:14:09.617Z,19.03
2017-09-01T05:16:37.109Z,23.23
2017-09-01T05:19:04.639Z,16.90
2017-09-01T05:21:32.124Z,16.60
2017-09-01T05:23:59.632Z,18.43
2017-09-01T05:26:27.135Z,18.13
2017-09-01T05:28:54.673Z,16.47
2017-09-01T05:31:22.216Z,19.43
2017-09-01T05:33:49.729Z,16.03
2017-09-01T05:36:17.999Z,16.97
2017-09-01T05:38:45.613Z,14.83
2017-09-01T05:41:13.214Z,17.17
2017-09-01T05:43:40.721Z,16.70
2017-09-01T05:46:08.307Z,18.90
2017-09-01T05:48:35.860Z,18.30
2017-09-01T05:51:03.349Z,16.90
2017-09-01T05:53:30.845Z,17.70
2017-09-01T05:55:58.352Z,19.37
2017-09-01T05:58:25.933Z,17.87
2017-09-01T06:00:53.438Z,19.07
2017-09-01T06:03:21.031Z,17.10
2017-09-01T06:05:48.685Z,20.37
2017-09-01T06:08:16.398Z,16.43
2017-09-01T06:10:43.912Z,20.40
2017-09-01T06:13:11.407Z,15.20
2017-09-01T06:15:38.918Z,21.23
2017-09-01T06:18:06.409Z,16.87
2017-09-01T06:20:34.045Z,15.93
2017-09-01T06:23:01.545Z,17.20
2017-09-01T06:25:29.132Z,21.17
2017-09-01T06:27:56.636Z,17.30
2017-09-01T06:30:24.124Z,17.30
2017-09-01T06:32:51.721Z,13.03
2017-09-01T06:35:19.276Z,18.00
2017-09-01T06:37:46.813Z,17.20
2017-09-01T06:40:14.330Z,18.40
2017-09-01T06:42:41.917Z,15.17
2017-09-01T06:45:09.404Z,16.00
2017-09-01T06:47:36.944Z,14.90
2017-09-01T06:50:04.517Z,16.53
2017-09-01T06:52:32.025Z,13.53
2017-09-01T06:54:59.537Z,12.93
2017-09-01T06:57:27.077Z,13.83
2017-09-01T06:59:54.622Z,14.90
2017-09-01T07:02:22.117Z,16.30
2017-09-01T07:04:49.709Z,14.40
2017-09-01T07:07:17.386Z,11.53
2017-09-01T07:09:44.903Z,12.90
2017-09-01T07:12:12.458Z,19.50
2017-09-01T07:14:39.973Z,16.63
2017-09-01T07:17:07.537Z,13.07
2017-09-01T07:19:35.048Z,13.60
2017-09-01T07:22:02.547Z,13.97
2017-09-01T07:24:30.161Z,11.60
2017-09-01T07:26:57.653Z,12.07
2017-09-01T07:29:25.141Z,18.00
2017-09-01T07:31:52.653Z,16.90
2017-09-01T07:34:20.153Z,11.90
2017-09-01T07:36:47.690Z,9.73
2017-09-01T07:39:15.257Z,10.80
2017-09-01T07:41:42.809Z,11.10
2017-09-01T07:44:10.305Z,20.33
2017-09-01T07:46:37.890Z,14.57
2017-09-01T07:49:06.233Z,10.80
2017-09-01T07:51:34.928Z,13.37
2017-09-01T08:22:14.313Z,13.73
2017-09-01T08:24:42.488Z,12.40
2017-09-01T08:27:09.983Z,15.33
2017-09-01T08:29:37.857Z,14.57
2017-09-01T08:32:05.575Z,12.63
2017-09-01T08:34:33.381Z,17.33
2017-09-01T08:37:02.037Z,14.23
2017-09-01T08:39:30.517Z,15.00
2017-09-01T08:42:01.370Z,24.80
2017-09-01T08:44:32.131Z,16.23
2017-09-01T08:47:02.949Z,15.17
2017-09-01T08:49:31.427Z,19.07
2017-09-01T08:51:59.142Z,15.90
2017-09-01T08:54:29.896Z,13.47
2017-09-01T08:56:59.618Z,15.57
2017-09-01T08:59:31.286Z,14.20
2017-09-01T09:02:01.425Z,16.27
2017-09-01T09:04:32.086Z,14.03
2017-09-01T09:07:00.325Z,15.97
2017-09-01T09:09:28.830Z,17.67
2017-09-01T09:12:07.687Z,16.40
2017-09-01T09:14:35.588Z,18.40
2017-09-01T09:17:03.600Z,13.53
2017-09-01T09:19:32.425Z,22.53
2017-09-01T09:22:02.551Z,23.03
2017-09-01T09:24:31.811Z,16.57
2017-09-01T09:27:00.974Z,19.03
2017-09-01T09:29:31.291Z,18.37
2017-09-01T09:32:03.258Z,21.17
2017-09-01T09:34:32.236Z,15.97
2017-09-01T09:37:01.761Z,17.93
2017-09-01T09:39:31.873Z,20.43
2017-09-01T09:42:02.878Z,15.10
2017-09-01T09:44:32.847Z,16.50
2017-09-01T09:47:03.327Z,16.00
2017-09-01T09:49:32.474Z,18.30
2017-09-01T09:52:03.126Z,15.73
2017-09-01T09:54:33.263Z,16.50
2017-09-01T09:57:03.217Z,14.67
2017-09-01T09:59:35.339Z,19.07
2017-09-01T10:02:05.537Z,16.10
2017-09-01T10:04:34.594Z,16.37
2017-09-01T10:07:04.375Z,18.50
2017-09-01T10:09:32.475Z,18.57
2017-09-01T10:12:02.071Z,15.67
2017-09-01T10:14:32.996Z,15.40
2017-09-01T10:17:03.903Z,21.10
2017-09-01T10:19:33.720Z,21.20
2017-09-01T10:22:01.985Z,16.60
2017-09-01T10:24:32.421Z,11.63
2017-09-01T10:27:03.609Z,10.77
2017-09-01T10:29:33.597Z,13.27
2017-09-01T10:32:04.070Z,13.27
2017-09-01T10:34:34.098Z,13.77
2017-09-01T10:37:04.416Z,17.23
2017-09-01T10:39:33.510Z,13.53
2017-09-01T10:42:03.801Z,13.77
2017-09-01T10:44:34.520Z,12.87
2017-09-01T10:47:04.147Z,11.93
2017-09-01T10:49:44.309Z,14.50
2017-09-01T10:52:24.028Z,11.07
2017-09-01T10:55:14.205Z,14.70
2017-09-01T10:58:08.047Z,14.10
2017-09-01T11:00:36.454Z,12.23
2017-09-01T11:03:05.524Z,12.13
2017-09-01T11:05:36.685Z,13.90
2017-09-01T11:08:05.221Z,11.17
2017-09-01T11:10:35.155Z,12.87
2017-09-01T11:13:03.421Z,9.73
2017-09-01T11:15:34.948Z,7.83
2017-09-01T11:18:06.502Z,8.50
2017-09-01T11:20:40.882Z,9.63
2017-09-01T11:23:15.773Z,6.77
2017-09-01T11:25:43.290Z,5.90
2017-09-01T11:28:10.869Z,9.33
2017-09-01T11:30:38.410Z,8.73
2017-09-01T11:33:06.432Z,10.47
2017-09-01T11:35:36.488Z,10.60
2017-09-01T11:38:05.629Z,5.87
2017-09-01T11:40:33.906Z,7.80
2017-09-01T11:43:04.486Z,5.53
2017-09-01T11:45:42.961Z,9.97
2017-09-01T11:48:10.578Z,7.50
2017-09-01T11:50:39.197Z,6.23
2017-09-01T11:53:07.432Z,9.93
2017-09-01T11:55:35.260Z,5.90
2017-09-01T11:58:03.862Z,6.17
2017-09-01T12:00:35.291Z,4.33
2017-09-01T12:03:14.753Z,5.90
2017-09-01T12:05:42.242Z,5.07
2017-09-01T12:08:09.766Z,4.23
2017-09-01T12:10:38.317Z,4.60
2017-09-01T12:13:06.510Z,6.37
2017-09-01T12:15:34.290Z,5.57
2017-09-01T12:18:03.587Z,5.03
2017-09-01T12:20:33.926Z,7.03
2017-09-01T12:23:02.913Z,5.93
2017-09-01T12:25:33.074Z,8.50
2017-09-01T12:28:01.526Z,8.00
2017-09-01T12:30:30.330Z,4.00
2017-09-01T12:32:58.061Z,6.63
2017-09-01T12:35:25.583Z,6.57
2017-09-01T12:37:53.254Z,5.20
2017-09-01T12:40:20.785Z,6.60
2017-09-01T12:42:48.285Z,5.30
2017-09-01T12:45:15.785Z,7.10
2017-09-01T12:47:43.290Z,3.67
2017-09-01T12:50:10.769Z,6.53
2017-09-01T12:52:38.538Z,6.67
2017-09-01T12:55:06.466Z,9.87
2017-09-01T12:57:34.144Z,5.80
2017-09-01T13:00:02.082Z,4.17
2017-09-01T13:02:29.956Z,7.60
2017-09-01T13:04:57.480Z,5.47
2017-09-01T13:07:25.057Z,5.70
2017-09-01T13:09:52.753Z,5.10
2017-09-01T13:12:20.324Z,4.13
2017-09-01T13:14:47.933Z,4.63
2017-09-01T13:17:15.481Z,5.33
2017-09-01T13:19:42.969Z,5.27
2017-09-01T13:22:10.453Z,4.00
2017-09-01T13:24:37.956Z,7.60
2017-09-01T13:27:05.451Z,5.40
2017-09-01T13:29:33.081Z,4.17
2017-09-01T13:32:00.689Z,4.13
2017-09-01T13:34:28.249Z,3.70
2017-09-01T13:36:55.729Z,4.30
2017-09-01T13:39:23.224Z,4.90
2017-09-01T13:41:50.753Z,5.20
2017-09-01T13:44:18.393Z,6.23
2017-09-01T13:46:46.109Z,4.43
2017-09-01T13:49:13.721Z,2.80
2017-09-01T13:51:41.240Z,4.17
2017-09-01T13:54:08.738Z,3.93
2017-09-01T13:56:36.339Z,7.33
2017-09-01T13:59:03.833Z,4.27
2017-09-01T14:01:31.393Z,6.00
2017-09-01T14:03:58.937Z,4.17
2017-09-01T14:06:26.489Z,2.87
2017-09-01T14:08:53.973Z,5.00
2017-09-01T14:11:21.491Z,2.77
2017-09-01T14:13:49.050Z,3.57
2017-09-01T14:16:16.561Z,5.97
2017-09-01T14:18:44.065Z,6.37
2017-09-01T14:21:11.625Z,2.83
2017-09-01T14:23:39.214Z,4.60
2017-09-01T14:26:06.732Z,3.67
2017-09-01T14:28:34.232Z,4.93
2017-09-01T14:31:01.817Z,3.80
2017-09-01T14:33:29.322Z,7.43
2017-09-01T14:35:56.804Z,3.80
2017-09-01T14:38:24.305Z,5.13
2017-09-01T14:40:51.793Z,7.50
2017-09-01T14:43:19.428Z,4.50
2017-09-01T14:45:46.938Z,5.50
2017-09-01T14:48:14.518Z,7.30
2017-09-01T14:50:42.178Z,4.30
2017-09-01T14:53:09.818Z,7.20
2017-09-01T14:55:37.360Z,6.43
2017-09-01T14:58:04.882Z,8.20
2017-09-01T15:00:32.380Z,10.20
2017-09-01T15:02:59.865Z,7.67
2017-09-01T15:05:27.370Z,9.17
2017-09-01T15:07:54.880Z,5.40
2017-09-01T15:10:22.385Z,6.73
2017-09-01T15:12:49.871Z,7.00
2017-09-01T15:15:17.388Z,5.43
2017-09-01T15:17:44.984Z,4.30
2017-09-01T15:20:12.551Z,5.00
2017-09-01T15:22:40.066Z,7.93
2017-09-01T15:25:07.625Z,6.10
2017-09-01T15:27:35.157Z,6.60
2017-09-01T15:30:02.705Z,9.03
2017-09-01T15:32:30.214Z,4.30
2017-09-01T15:34:57.697Z,5.47
2017-09-01T15:37:25.201Z,4.90
2017-09-01T15:39:52.748Z,8.03
2017-09-01T15:42:20.285Z,6.03
2017-09-01T15:44:47.773Z,7.23
2017-09-01T15:47:15.378Z,5.30
2017-09-01T15:49:42.877Z,6.63
2017-09-01T15:52:10.510Z,6.63
2017-09-01T15:54:38.013Z,12.40
2017-09-01T15:57:05.561Z,6.10
2017-09-01T15:59:33.045Z,7.13
2017-09-01T16:02:00.552Z,11.10
2017-09-01T16:04:28.041Z,9.73
2017-09-01T16:06:55.554Z,9.20
2017-09-01T16:09:23.167Z,5.90
2017-09-01T16:11:51.074Z,5.73
2017-09-01T16:14:18.739Z,5.97
2017-09-01T16:16:46.289Z,8.90
2017-09-01T16:19:13.832Z,8.13
2017-09-01T16:21:41.528Z,7.60
2017-09-01T16:24:09.046Z,9.33
2017-09-01T16:26:36.548Z,8.33
2017-09-01T16:29:04.133Z,8.83
2017-09-01T16:31:31.733Z,5.90
2017-09-01T16:33:59.253Z,6.53
2017-09-01T16:36:26.825Z,7.13
2017-09-01T16:38:54.365Z,8.53
2017-09-01T16:41:21.947Z,9.53
2017-09-01T16:43:49.623Z,8.80
2017-09-01T16:46:17.203Z,10.40
2017-09-01T16:48:44.703Z,13.27
2017-09-01T16:51:12.276Z,7.43
2017-09-01T16:53:39.771Z,11.30
2017-09-01T16:56:07.396Z,6.40
2017-09-01T16:58:34.923Z,11.67
2017-09-01T17:01:02.437Z,6.53
2017-09-01T17:03:29.925Z,6.13
2017-09-01T17:05:57.461Z,5.40
2017-09-01T17:08:24.949Z,6.80
2017-09-01T17:10:52.434Z,6.00
2017-09-01T17:13:19.928Z,5.87
2017-09-01T17:15:47.424Z,5.90
2017-09-01T17:18:14.945Z,5.80
2017-09-01T17:20:42.427Z,7.13
2017-09-01T17:23:09.930Z,5.67
2017-09-01T17:25:37.473Z,17.80
2017-09-01T17:28:05.012Z,14.40
2017-09-01T17:30:32.617Z,24.43
2017-09-01T17:33:00.239Z,15.03
2017-09-01T17:35:27.982Z,24.00
2017-09-01T17:37:55.604Z,19.10
2017-09-01T17:40:23.101Z,22.30
2017-09-01T17:42:50.716Z,23.10
2017-09-01T17:45:18.205Z,24.27
2017-09-01T17:47:45.726Z,19.63
2017-09-01T17:50:13.228Z,18.40
2017-09-01T17:52:40.745Z,19.63
2017-09-01T17:55:08.238Z,18.97
2017-09-01T17:57:35.744Z,17.77
2017-09-01T18:00:03.235Z,19.17
2017-09-01T18:02:30.864Z,15.77
2017-09-01T18:04:58.418Z,16.97
2017-09-01T18:07:26.140Z,18.37
2017-09-01T18:09:54.136Z,20.33
2017-09-01T18:12:21.733Z,23.43
2017-09-01T18:14:49.249Z,20.10
2017-09-01T18:17:16.745Z,19.60
2017-09-01T18:19:44.249Z,19.20
2017-09-01T18:22:11.740Z,23.20
2017-09-01T18:24:39.448Z,23.47
2017-09-01T18:27:06.938Z,23.97
2017-09-01T18:29:34.449Z,21.73
2017-09-01T18:32:01.953Z,23.20
2017-09-01T18:34:29.470Z,23.57
2017-09-01T18:36:56.977Z,20.93
2017-09-01T18:39:24.579Z,21.50
2017-09-01T18:41:52.065Z,25.97
2017-09-01T18:44:19.609Z,25.43
2017-09-01T18:46:47.115Z,28.43
2017-09-01T18:49:14.692Z,26.07
2017-09-01T18:51:42.185Z,33.33
2017-09-01T18:54:09.978Z,29.93
2017-09-01T18:56:37.579Z,30.10
2017-09-01T18:59:05.617Z,34.23
2017-09-01T19:01:33.134Z,45.23
2017-09-01T19:04:00.679Z,40.23
2017-09-01T19:06:28.229Z,32.10
2017-09-01T19:08:55.995Z,31.17
2017-09-01T19:11:23.615Z,31.10
2017-09-01T19:13:51.250Z,27.80
2017-09-01T19:16:18.741Z,31.30
2017-09-01T19:18:46.245Z,33.90
2017-09-01T19:21:13.881Z,30.80
2017-09-01T19:23:41.441Z,27.23
2017-09-01T19:26:08.965Z,27.83
2017-09-01T19:28:36.513Z,28.07
2017-09-01T19:31:04.053Z,24.93
2017-09-01T19:33:31.596Z,28.20
2017-09-01T19:35:59.151Z,28.70
2017-09-01T19:38:26.689Z,25.87
2017-09-01T19:40:54.209Z,30.30
2017-09-01T19:43:21.705Z,27.50
2017-09-01T19:45:49.317Z,24.90
2017-09-01T19:48:16.810Z,27.00
2017-09-01T19:50:44.535Z,28.47
2017-09-01T19:53:12.022Z,36.50
2017-09-01T19:55:39.533Z,30.80
2017-09-01T19:58:07.063Z,31.77
2017-09-01T20:00:34.581Z,32.53
2017-09-01T20:03:02.069Z,35.67
2017-09-01T20:05:29.577Z,34.30
2017-09-01T20:07:57.097Z,35.00
2017-09-01T20:10:24.674Z,32.93
2017-09-01T20:12:52.221Z,34.77
2017-09-01T20:15:19.732Z,31.30
2017-09-01T20:17:47.226Z,32.57
2017-09-01T20:20:14.738Z,35.30
2017-09-01T20:22:42.310Z,33.33
2017-09-01T20:25:09.818Z,34.37
2017-09-01T20:27:37.381Z,31.63
2017-09-01T20:30:04.885Z,32.53
2017-09-01T20:32:32.377Z,34.30
2017-09-01T20:34:59.868Z,32.43
2017-09-01T20:37:27.378Z,33.50
2017-09-01T20:39:54.869Z,36.67
2017-09-01T20:42:22.384Z,32.90
2017-09-01T20:44:49.878Z,36.07
2017-09-01T20:47:17.389Z,34.37
2017-09-01T20:49:44.877Z,37.83
2017-09-01T20:52:12.437Z,33.13
2017-09-01T20:54:39.934Z,33.60
2017-09-01T20:57:07.454Z,32.13
2017-09-01T20:59:35.984Z,33.13
2017-09-01T21:02:03.520Z,32.67
2017-09-01T21:04:31.055Z,31.03
2017-09-01T21:06:58.597Z,37.30
2017-09-01T21:09:26.116Z,38.83
2017-09-01T21:11:53.633Z,36.73
2017-09-01T21:14:21.129Z,33.30
2017-09-01T21:16:48.641Z,34.07
2017-09-01T21:19:16.137Z,33.93
2017-09-01T21:21:43.650Z,39.67
2017-09-01T21:24:11.141Z,35.10
2017-09-01T21:26:38.645Z,35.73
2017-09-01T21:29:06.511Z,38.87
2017-09-01T21:31:34.043Z,35.50
2017-09-01T21:34:01.544Z,33.10
2017-09-01T21:36:29.120Z,34.00
2017-09-01T21:38:56.624Z,34.00
2017-09-01T21:41:24.109Z,33.23
2017-09-01T21:43:51.620Z,32.00
2017-09-01T21:46:19.120Z,34.13
2017-09-01T21:48:46.629Z,31.43
2017-09-01T21:51:14.119Z,31.10
2017-09-01T21:53:41.627Z,33.27
2017-09-01T21:56:09.114Z,28.40
2017-09-01T21:58:36.836Z,28.00
2017-09-01T22:04:09.090Z,30.50
2017-09-01T22:06:36.589Z,30.20
2017-09-01T22:09:04.122Z,26.80
2017-09-01T22:11:31.627Z,27.53
2017-09-01T22:14:00.130Z,27.70
2017-09-01T22:16:27.768Z,31.23
2017-09-01T22:18:55.356Z,30.10
2017-09-01T22:21:22.863Z,31.57
2017-09-01T22:23:50.369Z,31.53
2017-09-01T22:26:17.912Z,26.17
2017-09-01T22:28:45.460Z,27.00
2017-09-01T22:31:13.042Z,31.43
2017-09-01T22:33:40.533Z,28.30
2017-09-01T22:36:08.037Z,28.87
2017-09-01T22:38:35.547Z,29.47
2017-09-01T22:41:03.109Z,33.50
2017-09-01T22:43:30.597Z,31.30
2017-09-01T22:45:58.197Z,35.67
2017-09-01T22:48:25.685Z,33.10
2017-09-01T22:50:53.284Z,33.90
2017-09-01T22:53:20.795Z,36.43
2017-09-01T22:55:48.349Z,37.40
2017-09-01T22:58:15.945Z,37.00
2017-09-01T23:00:43.602Z,35.10
2017-09-01T23:03:11.108Z,37.90
2017-09-01T23:05:38.633Z,37.17
2017-09-01T23:08:06.175Z,40.50
2017-09-01T23:10:33.747Z,38.13
2017-09-01T23:13:01.286Z,41.97
2017-09-01T23:15:28.829Z,47.60
2017-09-01T23:17:56.333Z,42.20
2017-09-01T23:20:23.821Z,38.93
2017-09-01T23:22:51.434Z,37.43
2017-09-01T23:25:18.942Z,37.87
2017-09-01T23:27:46.513Z,32.53
2017-09-01T23:30:14.029Z,29.87
2017-09-01T23:32:41.557Z,36.50
2017-09-01T23:35:09.162Z,35.57
2017-09-01T23:37:36.668Z,34.90
2017-09-01T23:40:04.232Z,45.40
2017-09-01T23:42:31.782Z,40.37
2017-09-01T23:44:59.334Z,33.70
2017-09-01T23:47:27.094Z,45.40
2017-09-01T23:49:54.619Z,36.53
2017-09-01T23:52:22.128Z,45.87
2017-09-01T23:54:49.704Z,42.43
2017-09-01T23:57:17.249Z,41.00
2017-09-01T23:59:44.767Z,36.30
